Create Custom Reports and Graphics: Custom Report

Lodi Weather Stations Latest Observations

Map

15 Minute Data

Lodi West

10 Stations

15 Minute Data | America/Los_Angeles
as of 8/15/20 12:56 PM PDT
Station Date Time Temp (°F) Dew Pt (°F) RH (%) Wind Spd (mph) Wind Dir (°) Wind Gust (mph) Latest Rain (In) Daily Rain (In) Daily Min Temp (°F) Daily Max Temp (°F)
Guard Rd (Lodi WSW) 8/15/20 1245 97.0   5.4 64.7   0.3 35   6 3.7   1.1 WNW | 292 7.0   2.6 0.00 0.00 65.3   0.6 97.7   2.6
Utter - Wilson 8/15/20 1245 102.4   5.2 62.1   5.7 27   1 2.7   2.5 SW | 228 6.3   3.0 0.00 0.00 68.1   1.1 104.1   5.7
Clarksburg 8/15/20 1245 104.9   2.2 58.4   5.2 22   2 2.9   0.2 SW | 221 7.2   1.2 0.00 0.00 67.6   1.8 106.3   3.6
Clarksburg-3A2 8/15/20 1245 100.7   3.8 58.0   6.3 25   3 5.0   1.6 SSW | 194 7.3   3.9 0.00 0.00 66.8   0.1 101.9   3.7
Gorter - Wilson 8/15/20 1245 102.5   5.8 63.3   3.5 28   1 2.1   1.3 WSW | 253 4.6   1.5 0.00 0.00 64.3   0.3 103.5   4.5
Hood 8/15/20 1245 98.6   3.0 60.4   0.3 29   3 3.6   0.1 WSW | 252 6.2   1.4 0.00 0.00 63.5   1.5 98.7   3.0
Courtland-C3 8/15/20 1245 98.9   3.3 59.1   0.5 27   2 4.6   1.5 W | 263 8.1   3.5 0.00 0.00 67.3   1.0 99.9   3.5
Pacific Fruit 8/15/20 1245 99.3   2.3 62.5   2.4 30   0 4.3   1.7 WNW | 291 9.2   2.0 0.00 0.00 67.0   1.7 100.2   1.9
Ryer Island South 8/15/20 1200 101.9   6.6 53.5   2.9 20   7 3.1   0.8 WSW | 254 6.7   0.8 0.00 0.00 64.4   2.2 103.3   6.5
Claussen 8/15/20 1245 100.9   4.7 63.8   4.8 30   1 3.6   1.2 NW | 308 6.6   3.2 0.00 0.00 67.6   0.4 102.0   4.7
Max     104.9 64.7 35 5.0 - 9.2 0.00 0.00 68.1 106.3
Avg     100.7 60.6 27 3.6 - 6.9 0.00 - - -
Min     97.0 53.5 20 2.1 - 4.6 0.00 0.00 63.5 97.7

Lodi Central

9 Stations

15 Minute Data | America/Los_Angeles
as of 8/15/20 12:56 PM PDT
Station Date Time Temp (°F) Dew Pt (°F) RH (%) Wind Dir (°) Wind Spd (mph) Wind Gust (mph) Latest Rain (In) Daily Rain (In) Daily Min Temp (°F) Daily Max Temp (°F)
Galt West 8/15/20 1245 99.6   2.4 61.4   3.8 29   2 W | 260 4.2   0.4 8.0   1.4 0.00 0.00 66.6   1.6 99.8   1.6
Valley Oak 8/15/20 1245 98.5   1.4 55.9   1.5 24   0 W | 265 4.6   0.3 9.2   1.8 0.00 0.00 65.6   1.0 99.0   0.9
Thornton 8/15/20 1245 100.3   3.9 60.1   3.9 27   1 W | 269 4.1   0.5 8.8   0.0 0.00 0.00 65.9   2.0 100.8   3.5
Kost Rd 8/15/20 1245 99.8   2.3 61.1   3.0 28   1 SW | 236 3.8   0.3 7.0   0.0 0.00 0.00 64.8   0.6 101.1   1.5
DeVries Road-North 8/15/20 1245 100.2   2.0 63.2   4.7 30   3 W | 279 3.6   0.3 9.1   0.3 0.00 0.00 66.9   1.3 101.6   1.9
Lodi (LangeTwins) 8/15/20 1245 98.6   2.2 64.2   4.6 33   3 NW | 313 3.1   0.7 6.4   0.0 0.00 0.00 67.0   1.7 99.6   2.6
Acampo 8/15/20 1245 98.1   2.4 57.2   2.6 26   0 WSW | 256 4.1   0.3 8.1   1.3 0.00 0.00 66.4   1.0 98.3   1.4
Acampo (Woodbridge) 8/15/20 1245 99.6   2.8 57.6   3.3 25   1 WNW | 288 6.6   0.1 10.9   0.7 0.00 0.00 68.9   0.7 100.1   2.4
Lodi West 7/13/20 0815 70.3   2.5 55.4   7.0 59   17 NW | 319 1.6   0.8 4.4   2.9 0.00 0.00 60.0   1.6 71.2   2.3
Max     100.3 64.2 33 - 6.6 10.9 0.00 0.00 68.9 101.6
Avg     99.3 60.1 28 - 4.3 8.4 0.00 - - -
Min     98.1 55.9 24 - 3.1 6.4 0.00 0.00 64.8 98.3

Lodi South

18 Stations

15 Minute Data | America/Los_Angeles
as of 8/15/20 12:56 PM PDT
Station Date Time Temp (°F) Dew Pt (°F) RH (%) Wind Spd (mph) Wind Dir (°) Wind Gust (mph) Latest Rain (In) Daily Rain (In) Daily Min Temp (°F) Daily Max Temp (°F)
Borden Hills 8/15/20 1245 101.3   1.0 64.8   4.4 31   4 4.9   0.6 WNW | 285 8.5   0.8 0.00 0.00 72.3   0.6 101.8   0.5
Collegeville 8/15/20 1245 102.0   9.3 56.1   3.0 22   11 3.0   0.6 N | 1 6.1   0.7 0.00 0.00 66.2   1.1 102.3   9.3
Galt-East 8/15/20 1245 100.5   2.2 59.8   7.0 26   4 4.8   0.1 W | 260 9.6   0.7 0.00 0.00 67.7   1.0 101.5   2.6
Escalon 8/15/20 1230 98.3   5.7 62.1   5.3 31   0 3.1   0.8 NW | 317 6.4   1.1 0.00 0.00 66.4   0.9 98.6   4.7
Victor - N (Katusha) 8/15/20 1245 98.4   2.0 56.4   4.2 25   2 4.5   0.1 W | 259 8.4   0.3 0.00 0.00 66.3   1.5 99.4   1.9
Teresi-Alpine Rd (East Lodi) 8/15/20 1245 100.3   2.2 56.3   3.4 23   1 4.2   1.0 WNW | 287 6.7   1.7 0.00 0.00 68.6   2.0 101.3   2.4
Gilbeau Ranch 8/15/20 1245 100.5   1.2 56.1   6.3 23   4 4.1   0.0 WNW | 292 8.8   0.2 0.00 0.00 67.1   1.8 101.1   1.1
Linden 8/15/20 1245 97.7   3.5 63.1   5.5 32   3 4.8   0.6 W | 261 8.3   0.9 0.00 0.00 64.2   1.8 98.2   3.5
Live Oak 8/15/20 1245 96.9   1.7 65.8   3.4 36   2 3.3   0.0 W | 278 7.5   1.8 0.00 0.00 65.4   0.7 98.4   2.8
Lockeford 8/15/20 1245 98.2   2.1 58.0   5.1 27   3 4.2   0.3 W | 273 7.9   0.0 0.00 0.00 66.5   1.6 99.0   2.0
Lone Oak-L28 8/15/20 1245 98.7   2.4 63.6   3.3 32   1 4.7   0.4 WNW | 290 8.8   0.3 0.00 0.00 64.9   0.3 100.0   3.1
Colony 1 8/15/20 1245 98.8   0.1 60.8   7.3 29   7 4.3   0.3 W | 263 8.0   1.3 0.00 0.00 67.5   0.6 99.6   0.6
Colony 2 8/15/20 1245 99.4   0.1 59.9   5.0 27   5 4.5   0.9 WSW | 249 8.4   0.2 0.00 0.00 67.1   1.6 100.1   0.6
Sheldon 8/15/20 1245 101.8   1.5 56.3   3.2 22   2 4.3   1.0 WSW | 238 7.1   3.0 0.00 0.00 65.5   1.2 102.7   1.7
Sierra Loma-L27 8/15/20 1245 101.1   1.9 63.8   6.1 30   4 4.3   0.6 W | 263 9.4   0.4 0.00 0.00 69.1   1.7 102.1   2.2
Simmerhorn 8/15/20 1245 99.2   1.9 56.0   4.5 24   2 - - - - - 67.8   2.0 100.1   2.3
Sloughhouse 8/15/20 1245 100.9   0.9 52.8   6.3 20   4 3.9   1.7 WSW | 238 10.5   1.7 0.00 0.00 64.0   2.0 101.7   0.7
5 Wells 8/15/20 1245 99.6   1.5 56.5   4.6 24   3 6.5   0.5 W | 259 11.4   2.2 0.00 0.00 67.1   2.1 100.2   1.2
Max     102.0 65.8 36 6.5 - 11.4 0.00 0.00 72.3 102.7
Avg     99.6 59.3 27 4.3 - 8.3 0.00 - - -
Min     96.9 52.8 20 3.0 - 6.1 0.00 0.00 64.0 98.2

Air Quality (Current)

Map

15 Minute Data